Time;durP1;ratioP1;P1;durP2;ratioP2;P2;SDS_P1;SDS_P2;PMS_P1;PMS_P2;Temp;Humidity;BMP_temperature;BMP_pressure;BME280_temperature;BME280_humidity;BME280_pressure;Samples;Min_cycle;Max_cycle;Signal;HPM_P1;HPM_P2
2022/05/04 00:01:55;;;;;;;12.97;9.03;;;16.20;99.90;;;16.68;nan;100559.59;5013582;28;20997;-69
2022/05/04 00:04:22;;;;;;;13.97;9.40;;;16.10;99.90;;;16.64;nan;100562.69;5012116;28;20629;-68
2022/05/04 00:06:49;;;;;;;10.03;8.30;;;16.10;99.90;;;16.67;nan;100560.59;5011929;28;20637;-69
2022/05/04 00:09:16;;;;;;;13.27;9.43;;;16.10;99.90;;;16.68;nan;100556.13;5007766;28;20680;-65
2022/05/04 00:11:44;;;;;;;14.00;10.10;;;16.10;99.90;;;16.58;nan;100553.59;5011473;28;21204;-68
2022/05/04 00:14:11;;;;;;;15.53;10.97;;;16.10;99.90;;;16.58;nan;100552.75;5012924;28;20625;-67
2022/05/04 00:16:38;;;;;;;14.80;11.20;;;16.10;99.90;;;16.50;nan;100545.63;4995984;28;20637;-67
2022/05/04 00:19:05;;;;;;;15.37;10.70;;;16.00;99.90;;;16.52;nan;100550.72;5003417;28;20642;-69
2022/05/04 00:21:32;;;;;;;12.70;9.67;;;16.00;99.90;;;16.55;nan;100563.56;5013013;28;20645;-67
2022/05/04 00:23:59;;;;;;;12.77;9.00;;;16.00;99.90;;;16.55;nan;100551.25;5013490;28;20609;-67
2022/05/04 00:26:26;;;;;;;16.00;10.43;;;16.00;99.90;;;16.54;nan;100554.88;5011935;28;20660;-68
2022/05/04 00:28:53;;;;;;;14.30;8.77;;;16.00;99.90;;;16.54;nan;100560.13;5012532;28;20844;-67
2022/05/04 00:31:20;;;;;;;14.30;10.00;;;16.00;99.90;;;16.51;nan;100554.31;5001550;28;20716;-65
2022/05/04 00:33:47;;;;;;;14.97;9.40;;;16.00;99.90;;;16.50;nan;100552.69;4993922;28;20594;-67
2022/05/04 00:36:14;;;;;;;13.80;10.60;;;15.90;99.90;;;16.42;nan;100550.75;4993421;28;20712;-66
2022/05/04 00:38:41;;;;;;;14.30;10.40;;;15.90;99.90;;;16.39;nan;100552.84;4994982;28;20636;-67
2022/05/04 00:41:08;;;;;;;13.37;10.17;;;15.90;99.90;;;16.40;nan;100552.69;5001873;28;21021;-68
2022/05/04 00:43:35;;;;;;;12.90;9.17;;;15.90;99.90;;;16.39;nan;100551.06;5012785;28;21235;-67
2022/05/04 00:46:02;;;;;;;14.70;10.70;;;15.90;99.90;;;16.40;nan;100549.25;5003725;28;20669;-68
2022/05/04 00:48:29;;;;;;;16.90;10.40;;;15.90;99.90;;;16.41;nan;100554.38;5010471;28;20681;-68
2022/05/04 00:50:56;;;;;;;14.57;9.40;;;15.90;99.90;;;16.39;nan;100550.22;5010339;28;21035;-69
2022/05/04 00:53:23;;;;;;;15.53;9.27;;;15.80;99.90;;;16.39;nan;100558.97;5012068;28;21025;-65
2022/05/04 00:55:51;;;;;;;13.60;10.60;;;15.90;99.90;;;16.30;nan;100552.78;5012215;28;20637;-68
2022/05/04 01:01:06;;;;;;;15.13;10.20;;;15.70;99.90;;;16.19;nan;100547.72;4991405;28;21005;-68
2022/05/04 01:03:33;;;;;;;15.67;11.77;;;15.70;99.90;;;16.17;nan;100549.66;4992395;28;20602;-68
2022/05/04 01:06:00;;;;;;;16.57;11.63;;;15.70;99.90;;;16.16;nan;100549.81;4975484;28;21245;-68
2022/05/04 01:08:27;;;;;;;14.27;10.87;;;15.70;99.90;;;16.11;nan;100550.28;4994427;28;20724;-68
2022/05/04 01:10:54;;;;;;;13.20;9.90;;;15.60;99.90;;;16.10;nan;100556.50;4994957;28;20618;-68
2022/05/04 01:13:22;;;;;;;14.70;11.00;;;15.60;99.90;;;16.10;nan;100560.91;5007632;28;21000;-68
2022/05/04 01:15:50;;;;;;;12.67;11.17;;;15.60;99.90;;;16.02;nan;100545.03;4982103;28;21033;-68
2022/05/04 01:18:17;;;;;;;17.47;10.13;;;15.50;99.90;;;15.96;nan;100548.25;5007797;28;20645;-68
2022/05/04 01:20:44;;;;;;;15.80;9.83;;;15.50;99.90;;;15.92;nan;100550.38;4994102;28;20687;-68
2022/05/04 01:23:13;;;;;;;14.87;10.50;;;15.40;99.90;;;15.95;nan;100554.53;5012105;28;21196;-68
2022/05/04 01:25:40;;;;;;;12.27;8.90;;;15.40;99.90;;;15.93;nan;100559.09;5013077;28;20680;-68
2022/05/04 01:28:07;;;;;;;11.63;9.40;;;15.40;99.90;;;15.87;nan;100552.59;5013120;28;21268;-67
2022/05/04 01:30:35;;;;;;;15.27;9.33;;;15.30;99.90;;;15.90;nan;100559.38;5008571;28;21017;-68
2022/05/04 01:33:02;;;;;;;11.87;9.13;;;15.40;99.90;;;15.94;nan;100552.84;4994386;28;20626;-68
2022/05/04 01:35:30;;;;;;;13.50;9.40;;;15.40;99.90;;;15.94;nan;100553.69;5012092;28;20653;-68
2022/05/04 01:37:57;;;;;;;13.80;9.97;;;15.40;99.90;;;15.89;nan;100549.81;4987061;28;20641;-68
2022/05/04 01:40:24;;;;;;;15.70;9.13;;;15.40;99.90;;;15.83;nan;100556.50;5012382;28;21177;-68
2022/05/04 01:42:50;;;;;;;11.13;8.60;;;15.40;99.90;;;15.78;nan;100563.19;5004583;28;20637;-67
2022/05/04 01:45:17;;;;;;;12.60;8.80;;;15.30;99.90;;;15.78;nan;100563.19;5008876;28;20641;-68
2022/05/04 01:47:48;;;;;;;13.20;9.40;;;15.20;99.90;;;15.74;nan;100567.09;4987001;28;20688;-68
2022/05/04 01:50:17;;;;;;;14.97;8.10;;;15.20;99.90;;;15.75;nan;100560.84;4992315;28;20635;-67
2022/05/04 01:52:44;;;;;;;10.07;7.27;;;15.20;99.90;;;15.73;nan;100565.41;5009977;28;20629;-69
2022/05/04 01:55:13;;;;;;;11.27;7.50;;;15.20;99.90;;;15.72;nan;100558.47;5011272;28;20905;-64
2022/05/04 01:57:40;;;;;;;8.43;6.60;;;15.20;99.90;;;15.70;nan;100566.53;4994128;28;20637;-68
2022/05/04 02:00:08;;;;;;;13.63;8.60;;;15.20;99.90;;;15.69;nan;100564.88;5012036;28;21170;-68
2022/05/04 02:02:36;;;;;;;12.20;8.50;;;15.20;99.90;;;15.57;nan;100567.84;4993792;28;21002;-69
2022/05/04 02:05:05;;;;;;;9.90;7.50;;;15.10;99.90;;;15.54;nan;100569.75;5007141;28;20657;-67
2022/05/04 02:07:37;;;;;;;10.30;7.67;;;15.00;99.90;;;15.51;nan;100564.78;4991860;28;20995;-67
2022/05/04 02:10:05;;;;;;;11.30;7.90;;;15.00;99.90;;;15.54;nan;100561.84;5010352;28;20673;-69
2022/05/04 02:12:34;;;;;;;9.70;8.17;;;15.00;99.90;;;15.43;nan;100559.44;4999965;28;20634;-68
2022/05/04 02:15:06;;;;;;;9.77;6.63;;;15.00;99.90;;;15.45;nan;100557.47;4974404;28;20654;-67
2022/05/04 02:17:33;;;;;;;8.40;6.20;;;14.90;99.90;;;15.40;nan;100574.59;4974549;28;20621;-67
2022/05/04 02:20:00;;;;;;;8.07;5.97;;;14.90;99.90;;;15.36;nan;100568.81;5009292;28;20625;-68
2022/05/04 02:22:27;;;;;;;7.40;6.00;;;14.90;99.90;;;15.32;nan;100567.44;5012457;28;20608;-67
2022/05/04 02:24:54;;;;;;;9.30;7.00;;;14.80;99.90;;;15.31;nan;100565.78;4973988;28;20672;-69
2022/05/04 02:27:21;;;;;;;9.80;6.50;;;14.80;99.90;;;15.29;nan;100564.28;4974287;28;20778;-67
2022/05/04 02:29:48;;;;;;;7.70;6.67;;;14.80;99.90;;;15.25;nan;100562.88;5008854;28;20704;-67
2022/05/04 02:32:16;;;;;;;5.87;5.20;;;14.70;99.90;;;15.24;nan;100569.13;4994446;28;20699;-67
2022/05/04 02:40:13;;;;;;;8.20;6.30;;;14.70;99.90;;;15.15;nan;100557.66;4990727;28;20666;-68
2022/05/04 02:42:40;;;;;;;7.40;6.07;;;14.70;99.90;;;15.14;nan;100571.75;4974547;28;20999;-68
2022/05/04 02:45:08;;;;;;;11.97;5.70;;;14.70;99.90;;;15.18;nan;100564.44;4990625;28;20732;-67
2022/05/04 02:47:35;;;;;;;9.30;6.37;;;14.70;99.90;;;15.15;nan;100572.59;4991715;28;20618;-68
2022/05/04 02:50:02;;;;;;;7.70;5.70;;;14.70;99.90;;;15.19;nan;100572.16;4982677;28;20670;-67
2022/05/04 02:52:29;;;;;;;5.87;4.97;;;14.70;99.90;;;15.08;nan;100564.44;4974724;28;20618;-67
2022/05/04 02:54:56;;;;;;;7.93;5.90;;;14.60;99.90;;;15.05;nan;100564.75;4991331;28;20782;-67
2022/05/04 02:57:22;;;;;;;7.60;5.70;;;14.60;99.90;;;14.96;nan;100568.19;4974792;28;20629;-69
2022/05/04 02:59:50;;;;;;;9.10;6.00;;;14.50;99.90;;;14.85;nan;100568.34;4974502;28;20622;-66
2022/05/04 03:02:29;;;;;;;9.40;5.97;;;14.40;99.90;;;14.85;nan;100567.50;4990956;28;21268;-67
2022/05/04 03:05:05;;;;;;;7.70;5.80;;;14.30;99.90;;;14.66;nan;100568.34;4990412;28;20649;-65
2022/05/04 03:07:33;;;;;;;8.77;6.57;;;14.20;99.90;;;14.65;nan;100571.94;4990900;28;20621;-66
2022/05/04 03:10:00;;;;;;;10.00;5.90;;;14.20;99.90;;;14.65;nan;100572.75;4999880;28;20670;-67
2022/05/04 03:12:27;;;;;;;9.07;6.03;;;14.20;99.90;;;14.53;nan;100568.59;5002514;28;20617;-68
2022/05/04 03:14:55;;;;;;;8.03;6.23;;;14.00;99.90;;;14.42;nan;100571.34;4993798;28;20653;-67
2022/05/04 03:17:22;;;;;;;8.53;7.20;;;13.90;99.90;;;14.35;nan;100567.59;5011623;28;20671;-67
2022/05/04 03:19:50;;;;;;;8.20;6.43;;;13.90;99.90;;;14.35;nan;100566.78;5011558;28;20690;-67
2022/05/04 03:22:17;;;;;;;7.50;6.40;;;13.80;99.90;;;14.38;nan;100563.88;5009789;28;20617;-67
2022/05/04 03:24:44;;;;;;;6.70;5.97;;;13.90;99.90;;;14.36;nan;100571.06;5004807;28;20670;-67
2022/05/04 03:27:11;;;;;;;6.70;5.70;;;13.90;99.90;;;14.40;nan;100568.03;5011368;28;20650;-67
2022/05/04 03:29:38;;;;;;;6.80;5.63;;;13.90;99.90;;;14.38;nan;100562.09;5009446;28;20669;-67
2022/05/04 03:32:06;;;;;;;8.43;6.20;;;13.90;99.90;;;14.42;nan;100560.84;4995751;28;20645;-68
2022/05/04 03:34:34;;;;;;;6.83;6.00;;;14.00;99.90;;;14.45;nan;100559.75;4990561;28;20662;-69
2022/05/04 03:37:01;;;;;;;7.50;5.77;;;14.00;99.90;;;14.40;nan;100564.56;4990885;28;20691;-67
2022/05/04 03:39:29;;;;;;;7.23;5.87;;;13.90;99.90;;;14.41;nan;100566.25;4973387;28;21037;-67
2022/05/04 03:41:59;;;;;;;9.07;5.80;;;13.90;99.90;;;14.37;nan;100567.50;4990172;28;20638;-68
2022/05/04 03:44:26;;;;;;;8.53;5.57;;;13.90;99.90;;;14.36;nan;100566.66;4990537;28;20629;-68
2022/05/04 03:46:54;;;;;;;8.57;6.20;;;13.90;99.90;;;14.35;nan;100569.41;5008748;28;21211;-68
2022/05/04 03:49:23;;;;;;;10.57;7.13;;;13.90;99.90;;;14.40;nan;100577.69;5018663;28;20681;-68
2022/05/04 03:51:51;;;;;;;7.47;5.50;;;13.90;99.90;;;14.37;nan;100572.75;4982266;28;20974;-68
2022/05/04 03:54:19;;;;;;;6.30;4.90;;;13.90;99.90;;;14.32;nan;100577.56;4990486;28;20719;-69
2022/05/04 03:56:46;;;;;;;8.40;5.20;;;13.90;99.90;;;14.33;nan;100572.16;5009823;28;20637;-68
2022/05/04 03:59:13;;;;;;;16.27;5.93;;;13.80;99.90;;;14.34;nan;100570.38;5010077;28;20629;-68
2022/05/04 04:01:40;;;;;;;6.17;5.37;;;13.90;99.90;;;14.33;nan;100579.22;4961136;28;20649;-68
2022/05/04 04:04:08;;;;;;;8.07;5.70;;;13.90;99.90;;;14.27;nan;100583.16;4991473;28;21181;-68
2022/05/04 04:06:35;;;;;;;7.83;6.07;;;13.80;99.90;;;14.26;nan;100575.44;4961672;28;21185;-68
2022/05/04 04:09:03;;;;;;;12.13;7.23;;;13.80;99.90;;;14.28;nan;100578.75;4993041;28;21035;-68
2022/05/04 04:11:31;;;;;;;10.60;6.57;;;13.80;99.90;;;14.29;nan;100585.72;4978988;28;20646;-69
2022/05/04 04:13:59;;;;;;;8.23;6.13;;;13.80;99.90;;;14.27;nan;100587.63;5001898;28;20671;-68
2022/05/04 04:16:26;;;;;;;11.53;7.37;;;13.80;99.90;;;14.27;nan;100587.63;4994538;28;20722;-70
2022/05/04 04:18:54;;;;;;;13.13;7.43;;;13.80;99.90;;;14.21;nan;100590.75;4990344;28;20622;-68
2022/05/04 04:24:07;;;;;;;11.77;6.77;;;13.70;99.90;;;14.10;nan;100591.69;5009441;28;20991;-69
2022/05/04 04:26:37;;;;;;;10.00;6.53;;;13.70;99.90;;;14.07;nan;100591.97;4999663;28;21323;-68
2022/05/04 04:29:05;;;;;;;9.03;6.10;;;13.60;99.90;;;14.08;nan;100596.22;4975355;28;20916;-68
2022/05/04 04:31:32;;;;;;;12.20;6.73;;;13.70;99.90;;;14.06;nan;100587.66;4998484;28;20638;-67
2022/05/04 04:34:01;;;;;;;10.20;6.53;;;13.60;99.90;;;13.98;nan;100592.75;5012514;28;20632;-68
2022/05/04 04:36:28;;;;;;;9.57;6.83;;;13.60;99.90;;;14.05;nan;100593.06;5011276;28;20657;-68
2022/05/04 04:38:56;;;;;;;9.80;6.80;;;13.60;99.90;;;14.08;nan;100591.00;5004135;28;21191;-68
2022/05/04 04:41:23;;;;;;;10.13;6.73;;;13.70;99.90;;;14.15;nan;100604.41;4997317;28;20652;-70
2022/05/04 04:43:50;;;;;;;9.63;6.33;;;13.70;99.90;;;14.12;nan;100595.00;5005517;28;20641;-69
2022/05/04 04:46:16;;;;;;;8.80;5.90;;;13.70;99.90;;;14.13;nan;100596.69;4993720;28;20645;-68
2022/05/04 04:48:44;;;;;;;8.60;6.67;;;13.70;99.90;;;14.09;nan;100602.31;5005196;28;21030;-68
2022/05/04 04:51:11;;;;;;;11.20;7.00;;;13.70;99.90;;;14.14;nan;100600.94;4983671;28;20958;-68
2022/05/04 04:53:38;;;;;;;7.80;6.40;;;13.70;99.90;;;14.15;nan;100607.88;4989463;28;21228;-69
2022/05/04 04:56:06;;;;;;;9.83;5.90;;;13.80;99.90;;;14.21;nan;100619.59;4992246;28;20646;-68
2022/05/04 04:58:33;;;;;;;8.63;6.33;;;13.80;99.90;;;14.28;nan;100618.13;4994947;28;20639;-70
2022/05/04 05:01:00;;;;;;;9.53;6.57;;;13.80;99.90;;;14.38;nan;100632.13;4995267;28;21003;-68
2022/05/04 05:03:27;;;;;;;11.33;6.77;;;13.90;99.90;;;14.33;nan;100629.91;5011576;28;20610;-68
2022/05/04 05:05:54;;;;;;;8.70;5.90;;;13.90;99.90;;;14.27;nan;100625.16;5012327;28;20653;-68
2022/05/04 05:08:21;;;;;;;7.80;5.60;;;13.90;99.90;;;14.32;nan;100630.88;5009460;28;20637;-67
2022/05/04 05:10:48;;;;;;;10.20;7.00;;;13.90;99.90;;;14.33;nan;100626.47;4977227;28;20634;-68
2022/05/04 05:13:15;;;;;;;9.40;6.80;;;13.90;99.90;;;14.41;nan;100631.88;5004702;28;20642;-69
2022/05/04 05:16:24;;;;;;;9.37;6.87;;;14.00;99.90;;;14.46;nan;100630.50;5010338;28;20680;-69
2022/05/04 05:18:32;;;;;;;7.30;5.90;;;14.00;99.90;;;14.51;nan;100630.09;5005513;28;20637;-68
2022/05/04 05:20:59;;;;;;;7.57;5.93;;;14.10;99.90;;;14.53;nan;100626.38;5010788;28;21239;-67
2022/05/04 05:23:28;;;;;;;9.20;6.80;;;14.20;99.90;;;14.55;nan;100631.47;5010652;28;20613;-68
2022/05/04 05:25:55;;;;;;;10.33;7.40;;;14.10;99.90;;;14.56;nan;100626.09;5010893;28;21272;-68
2022/05/04 05:28:22;;;;;;;10.60;7.07;;;14.20;99.90;;;14.63;nan;100631.63;4993914;28;20622;-69
2022/05/04 05:30:48;;;;;;;10.50;6.60;;;14.20;99.90;;;14.66;nan;100626.94;5012034;28;20641;-68
2022/05/04 05:33:15;;;;;;;8.97;6.47;;;14.30;99.90;;;14.71;nan;100634.41;5011772;28;20610;-71
2022/05/04 05:35:42;;;;;;;8.90;6.80;;;14.30;99.90;;;14.81;nan;100639.66;5008212;28;20669;-69
2022/05/04 05:38:10;;;;;;;9.90;7.10;;;14.40;99.90;;;14.85;nan;100634.00;5011890;28;20621;-69
2022/05/04 05:40:37;;;;;;;11.67;6.50;;;14.40;99.90;;;14.92;nan;100642.16;5003988;28;20677;-68
2022/05/04 05:43:04;;;;;;;12.37;6.90;;;14.50;99.90;;;14.97;nan;100647.84;5011191;28;20629;-69
2022/05/04 05:45:31;;;;;;;7.73;6.20;;;14.60;99.90;;;14.98;nan;100642.44;5009927;28;20657;-67
2022/05/04 05:47:58;;;;;;;8.13;6.90;;;14.60;99.90;;;15.08;nan;100653.78;5010798;28;21040;-68
2022/05/04 05:50:25;;;;;;;9.27;6.43;;;14.70;99.90;;;15.17;nan;100652.13;5008843;28;21208;-68
2022/05/04 05:52:53;;;;;;;8.97;6.23;;;14.80;99.90;;;15.23;nan;100654.19;5004413;28;21204;-68
2022/05/04 05:55:20;;;;;;;7.80;7.00;;;14.80;99.90;;;15.22;nan;100653.38;5005875;28;20665;-68
2022/05/04 05:57:47;;;;;;;9.70;7.50;;;14.90;99.90;;;15.21;nan;100659.59;5011412;28;21193;-69
2022/05/04 06:00:15;;;;;;;9.10;6.90;;;14.80;99.90;;;15.25;nan;100660.13;4998177;28;20641;-68
2022/05/04 06:02:42;;;;;;;9.10;6.70;;;14.80;99.90;;;15.35;nan;100664.41;5012507;28;21149;-68
2022/05/04 06:05:09;;;;;;;10.97;7.57;;;14.90;99.90;;;15.47;nan;100654.63;5011290;28;20656;-68
2022/05/04 06:07:37;;;;;;;11.33;7.40;;;15.00;99.90;;;15.59;nan;100658.75;5012067;28;20624;-68
2022/05/04 06:10:06;;;;;;;9.10;7.07;;;15.20;99.90;;;15.70;nan;100663.84;5005116;28;20678;-68
2022/05/04 06:12:33;;;;;;;11.27;7.77;;;15.30;99.90;;;15.78;nan;100658.69;4993737;28;20635;-68
2022/05/04 06:15:01;;;;;;;12.07;7.90;;;15.40;99.90;;;15.85;nan;100651.06;4992103;28;20996;-68
2022/05/04 06:17:28;;;;;;;13.27;8.07;;;15.50;99.90;;;16.09;nan;100652.25;4993666;28;20617;-68
2022/05/04 06:19:55;;;;;;;11.77;7.80;;;15.70;99.90;;;16.41;nan;100657.06;5011188;28;20687;-69
2022/05/04 06:22:22;;;;;;;17.20;8.00;;;16.10;99.90;;;16.57;nan;100662.53;5012482;28;20613;-66
2022/05/04 06:24:49;;;;;;;15.03;7.20;;;16.30;99.90;;;16.83;nan;100660.84;5012148;28;20641;-68
2022/05/04 06:27:16;;;;;;;9.80;7.40;;;16.50;99.90;;;17.00;nan;100659.19;5010613;28;20634;-67
2022/05/04 06:35:14;;;;;;;21.33;8.43;;;17.20;99.90;;;18.01;nan;100671.88;4990092;28;20681;-66
2022/05/04 06:37:41;;;;;;;16.60;7.10;;;17.70;99.90;;;18.29;nan;100671.50;4991434;28;20649;-68
2022/05/04 06:40:09;;;;;;;7.50;6.57;;;18.00;99.90;;;18.47;nan;100682.84;4991883;28;20625;-67
2022/05/04 06:42:36;;;;;;;9.17;6.50;;;18.20;99.90;;;18.56;nan;100676.59;4991832;28;20638;-67
2022/05/04 06:45:04;;;;;;;9.63;6.63;;;18.20;99.90;;;18.67;nan;100674.66;4992226;28;20661;-69
2022/05/04 06:47:31;;;;;;;10.90;6.77;;;18.40;99.90;;;18.85;nan;100675.34;5010005;28;20621;-67
2022/05/04 06:49:57;;;;;;;9.07;6.63;;;18.60;99.90;;;18.68;nan;100673.63;5010753;28;21267;-68
2022/05/04 06:52:24;;;;;;;8.40;6.63;;;18.40;99.50;;;18.81;nan;100671.38;5004701;28;20633;-68
2022/05/04 06:54:52;;;;;;;7.93;6.37;;;18.50;99.30;;;18.74;nan;100673.03;5003753;28;20711;-68
2022/05/04 06:57:20;;;;;;;8.20;6.60;;;18.50;99.00;;;18.78;nan;100683.13;4977847;28;20644;-67
2022/05/04 06:59:48;;;;;;;8.90;6.67;;;18.50;98.60;;;18.63;nan;100675.97;4991325;28;20621;-68
2022/05/04 07:02:15;;;;;;;7.43;5.90;;;18.30;98.50;;;18.80;nan;100681.13;4991599;28;20665;-67
2022/05/04 07:04:42;;;;;;;7.73;6.77;;;18.50;98.40;;;18.69;nan;100678.78;4990099;28;20662;-67
2022/05/04 07:07:09;;;;;;;8.40;6.67;;;18.50;98.10;;;18.67;nan;100683.41;4989439;28;20649;-69
2022/05/04 07:09:36;;;;;;;7.87;6.77;;;18.30;98.30;;;18.99;nan;100674.72;4990170;28;20669;-68
2022/05/04 07:12:04;;;;;;;5.33;4.83;;;18.60;98.20;;;19.16;nan;100679.03;4985518;28;20636;-66
2022/05/04 07:14:31;;;;;;;9.43;6.80;;;18.90;97.50;;;19.24;nan;100671.09;5010839;28;21197;-67
2022/05/04 07:16:58;;;;;;;9.10;6.40;;;18.90;97.50;;;20.29;nan;100681.59;4994011;28;20625;-68
2022/05/04 07:19:26;;;;;;;8.17;6.13;;;19.80;97.10;;;21.87;nan;100676.34;5011242;28;20733;-68
2022/05/04 07:21:53;;;;;;;7.33;6.63;;;21.60;93.30;;;22.44;nan;100684.53;5011471;28;21188;-68
2022/05/04 07:24:20;;;;;;;8.53;7.10;;;22.20;91.10;;;23.09;nan;100684.44;5010159;28;20622;-69
2022/05/04 07:26:47;;;;;;;10.20;7.30;;;22.80;88.70;;;24.90;nan;100682.41;5010957;28;21196;-68
2022/05/04 07:29:14;;;;;;;7.83;6.80;;;24.60;82.40;;;26.95;nan;100684.59;4985461;28;20645;-70
2022/05/04 07:31:42;;;;;;;9.40;7.40;;;26.80;71.90;;;28.24;nan;100691.75;5006859;28;20637;-68
2022/05/04 07:34:11;;;;;;;8.37;7.20;;;28.20;64.40;;;29.67;nan;100693.47;5004753;28;20679;-70
2022/05/04 07:36:39;;;;;;;10.30;7.40;;;29.70;58.80;;;31.22;nan;100695.94;4993110;28;20744;-68
2022/05/04 07:39:06;;;;;;;9.13;7.67;;;31.30;54.70;;;32.23;nan;100688.63;5011514;28;20629;-68
2022/05/04 07:44:18;;;;;;;8.40;7.50;;;32.00;48.50;;;31.31;nan;100693.66;5010996;28;20654;-67
2022/05/04 07:46:45;;;;;;;11.00;7.50;;;31.20;50.00;;;30.76;nan;100693.47;5008851;28;21208;-67
2022/05/04 07:49:12;;;;;;;8.87;7.43;;;30.70;50.10;;;29.82;nan;100693.88;5008740;28;20629;-67
2022/05/04 07:51:39;;;;;;;10.97;7.97;;;29.80;50.30;;;29.14;nan;100688.13;5010218;28;20616;-67
2022/05/04 07:54:07;;;;;;;7.23;6.47;;;28.90;52.00;;;28.61;nan;100687.22;5010025;28;20629;-67
2022/05/04 07:56:34;;;;;;;10.37;7.40;;;28.30;53.00;;;28.40;nan;100680.44;5011283;28;20691;-68
2022/05/04 07:59:01;;;;;;;9.50;7.67;;;28.10;53.40;;;27.90;nan;100679.72;5010254;28;20649;-68
2022/05/04 08:04:16;;;;;;;9.80;7.93;;;27.30;53.70;;;26.60;nan;100689.50;5012060;28;20641;-67
2022/05/04 08:06:47;;;;;;;10.30;8.37;;;26.40;54.80;;;26.53;nan;100692.19;5014018;28;20632;-67
2022/05/04 08:09:14;;;;;;;8.20;7.10;;;26.30;56.00;;;27.03;nan;100687.81;5009566;28;20641;-67
2022/05/04 08:11:41;;;;;;;9.27;7.67;;;26.80;55.30;;;26.96;nan;100695.06;5014422;28;20628;-68
2022/05/04 08:14:10;;;;;;;10.50;8.80;;;26.70;55.60;;;26.45;nan;100692.41;5013194;28;20617;-68
2022/05/04 08:16:39;;;;;;;9.23;8.33;;;26.20;57.40;;;25.67;nan;100692.56;5012795;28;20647;-67
2022/05/04 08:19:07;;;;;;;9.10;8.07;;;25.60;56.70;;;25.10;nan;100685.13;5013857;28;20607;-68
2022/05/04 08:21:36;;;;;;;9.40;7.80;;;24.90;58.10;;;24.68;nan;100686.22;5013446;28;20713;-67
2022/05/04 08:24:04;;;;;;;11.73;8.27;;;24.30;59.50;;;24.42;nan;100688.78;5014172;28;20622;-68
2022/05/04 08:26:42;;;;;;;9.90;7.30;;;24.00;60.20;;;24.61;nan;100690.69;5012032;28;21472;-68
2022/05/04 08:29:09;;;;;;;8.87;7.47;;;24.20;60.50;;;24.73;nan;100691.75;5008797;28;21484;-67
2022/05/04 08:31:38;;;;;;;7.83;7.03;;;24.50;60.40;;;24.81;nan;100688.13;5012904;28;20661;-67
2022/05/04 08:34:06;;;;;;;8.60;7.63;;;24.60;59.90;;;25.08;nan;100687.16;5011560;28;20629;-68
2022/05/04 08:36:37;;;;;;;8.17;5.73;;;24.90;59.40;;;25.02;nan;100696.00;5012918;28;20653;-69
2022/05/04 08:39:08;;;;;;;8.50;7.60;;;24.80;59.20;;;24.01;nan;100694.06;5013043;28;20625;-67
2022/05/04 08:41:40;;;;;;;10.27;8.10;;;24.00;60.10;;;23.20;nan;100696.44;5009588;28;20642;-67
2022/05/04 08:44:09;;;;;;;7.70;6.57;;;23.00;63.10;;;23.00;nan;100699.72;5011707;28;21219;-67
2022/05/04 08:46:40;;;;;;;9.60;8.10;;;22.60;63.30;;;22.65;nan;100694.41;5012379;28;21161;-67
2022/05/04 08:49:10;;;;;;;11.23;7.37;;;22.40;64.00;;;24.11;nan;100701.72;5012823;28;20625;-68
2022/05/04 08:51:37;;;;;;;12.40;7.20;;;23.60;63.90;;;27.55;nan;100698.22;5005886;28;20662;-68
2022/05/04 08:54:07;;;;;;;8.37;7.40;;;27.30;58.50;;;31.44;nan;100717.66;4993960;28;20630;-68
2022/05/04 08:56:34;;;;;;;16.20;6.80;;;31.60;52.10;;;34.27;nan;100712.44;4993154;28;20679;-69
2022/05/04 08:59:06;;;;;;;9.65;8.70;;;34.70;46.80;;;36.06;nan;100726.84;4995737;28;24579;-67
2022/05/04 09:01:37;;;;;;;11.43;7.10;;;36.80;43.50;;;37.20;nan;100710.28;5012126;28;20214;-69
2022/05/04 09:04:05;;;;;;;9.30;8.40;;;37.80;41.70;;;38.33;nan;100713.31;5011193;28;21227;-68
2022/05/04 09:06:37;;;;;;;8.70;7.80;;;39.10;39.90;;;38.66;nan;100708.75;5013540;28;20653;-70
2022/05/04 09:09:13;;;;;;;8.00;7.30;;;39.00;39.10;;;39.50;nan;100714.03;5012185;28;20641;-70
2022/05/04 09:11:43;;;;;;;7.70;6.90;;;39.90;38.10;;;40.39;nan;100714.53;4983020;28;20674;-67
2022/05/04 09:14:25;;;;;;;8.83;8.13;;;40.70;37.70;;;41.07;nan;100702.66;4992462;28;20618;-66
2022/05/04 09:16:53;;;;;;;7.63;6.93;;;41.50;36.50;;;40.67;nan;100705.22;4975244;28;20669;-66
2022/05/04 09:19:20;;;;;;;8.70;7.77;;;41.20;35.50;;;38.21;nan;100693.78;4993310;28;20634;-64
2022/05/04 09:21:48;;;;;;;7.37;6.50;;;38.80;36.60;;;36.14;nan;100689.06;4993554;28;20618;-67
2022/05/04 09:24:30;;;;;;;8.73;7.93;;;36.30;38.40;;;34.11;nan;100690.97;4975369;28;21206;-66
2022/05/04 09:26:58;;;;;;;10.93;8.63;;;34.10;40.40;;;32.56;nan;100683.13;4993483;28;20612;-66
2022/05/04 09:29:37;;;;;;;11.83;8.00;;;32.40;42.00;;;31.82;nan;100685.34;5001411;28;21220;-66
2022/05/04 09:32:16;;;;;;;8.20;7.40;;;31.60;42.90;;;32.58;nan;100681.00;5012706;28;20613;-66
2022/05/04 09:34:49;;;;;;;9.67;8.73;;;32.20;42.40;;;33.81;nan;100677.25;5010521;28;20673;-66
2022/05/04 09:45:37;;;;;;;9.23;8.33;;;38.00;38.10;;;37.40;nan;100676.69;5006435;28;20665;-68
2022/05/04 09:48:05;;;;;;;10.87;8.57;;;37.80;37.50;;;35.48;nan;100674.00;5007697;28;20628;-68
2022/05/04 09:50:41;;;;;;;9.53;8.40;;;35.70;38.70;;;33.57;nan;100666.81;4993217;28;20673;-66
2022/05/04 09:53:08;;;;;;;13.77;9.70;;;33.60;40.70;;;33.69;nan;100671.22;5005788;28;20631;-68
2022/05/04 09:55:36;;;;;;;10.47;9.00;;;33.30;41.90;;;35.82;nan;100667.66;5010028;28;20650;-69
2022/05/04 09:58:03;;;;;;;10.87;9.83;;;35.70;40.10;;;37.47;nan;100668.97;5011519;28;20671;-68
2022/05/04 10:00:30;;;;;;;8.33;7.50;;;37.60;38.60;;;39.23;nan;100675.72;5008524;28;20642;-68
2022/05/04 10:02:57;;;;;;;9.97;8.97;;;39.60;37.40;;;40.06;nan;100666.59;5011328;28;20633;-68
2022/05/04 10:05:25;;;;;;;8.17;7.37;;;40.40;36.60;;;40.72;nan;100672.25;5006964;28;20674;-68
2022/05/04 10:07:52;;;;;;;11.40;10.40;;;41.10;36.00;;;38.85;nan;100668.69;5010350;28;20634;-67
2022/05/04 10:10:21;;;;;;;10.93;9.77;;;39.60;36.10;;;37.23;nan;100658.00;4977193;28;20674;-66
2022/05/04 10:12:49;;;;;;;9.73;8.60;;;37.60;37.80;;;35.59;nan;100659.31;4992412;28;20619;-67
2022/05/04 10:15:19;;;;;;;10.50;9.50;;;35.70;39.40;;;33.35;nan;100646.34;4994246;28;21029;-67
2022/05/04 10:17:57;;;;;;;9.00;8.20;;;33.50;40.80;;;32.31;nan;100639.59;4988716;28;20630;-68
2022/05/04 10:20:44;;;;;;;11.23;9.97;;;32.10;42.00;;;31.58;nan;100638.06;5010708;28;21025;-67
2022/05/04 10:23:18;;;;;;;10.97;9.70;;;31.30;43.80;;;31.33;nan;100641.13;5011096;28;20683;-68
2022/05/04 10:25:46;;;;;;;10.10;9.10;;;30.80;44.00;;;30.84;nan;100635.72;4976884;28;20665;-68
2022/05/04 10:28:15;;;;;;;11.90;10.70;;;30.30;44.70;;;29.20;nan;100627.31;4991803;28;20694;-67
2022/05/04 10:30:53;;;;;;;13.27;10.53;;;29.00;46.30;;;27.89;nan;100631.69;5002079;28;21073;-67
2022/05/04 10:33:35;;;;;;;12.10;9.67;;;27.80;47.60;;;26.31;nan;100623.97;4998901;28;20641;-65
2022/05/04 10:36:28;;;;;;;13.20;10.20;;;26.00;50.30;;;25.70;nan;100623.50;5010357;28;20665;-68
2022/05/04 10:39:02;;;;;;;13.53;10.90;;;25.20;52.10;;;25.32;nan;100627.84;5011760;28;20623;-68
2022/05/04 10:41:35;;;;;;;18.30;10.90;;;24.70;52.80;;;24.94;nan;100619.56;5009931;28;20984;-68
2022/05/04 10:44:03;;;;;;;11.80;9.60;;;24.40;53.60;;;24.86;nan;100624.28;5009860;28;20992;-67
2022/05/04 10:46:32;;;;;;;13.87;8.73;;;24.20;53.70;;;24.74;nan;100629.41;5010596;28;21263;-68
2022/05/04 10:49:06;;;;;;;14.00;10.03;;;24.20;55.00;;;24.69;nan;100626.47;5011911;28;20970;-67
2022/05/04 10:51:38;;;;;;;13.90;10.87;;;24.10;55.50;;;24.62;nan;100620.28;5010467;28;21058;-67
2022/05/04 10:54:08;;;;;;;14.27;10.60;;;24.10;56.40;;;24.66;nan;100625.03;5004638;28;20634;-67
2022/05/04 10:56:44;;;;;;;15.50;10.53;;;24.10;56.40;;;24.63;nan;100616.63;5010245;28;20657;-67
2022/05/04 10:59:23;;;;;;;11.50;8.63;;;24.00;56.50;;;24.72;nan;100625.25;5003708;28;20644;-67